KBKN

Blackwell-Tonkawa Municipal Airport

Blackwell, Oklahoma, USA
METAR KBKN 181335Z AUTO 14016G22KT 4SM BR OVC003 04/04 A2989 RMK AO2
Observed Flight Rules
Jan-18 @ 13:35 UTC (16 minutes ago) Instrument Flight Rules
Wind Visibility Clouds Conditions
140° at 16 knots
 Gusting to 22 knots
4 miles
  • Overcast at 300' AGL
  • Mist
Temperatures Readings
Current 4°C / 39°F
Dewpoint 4°C / 39°F
Humidity 100%
Altimeter 29.89" Hg
Pressure 1012.22 hPa
Elevation 314
METAR KBKN 181335Z AUTO 14016G22KT 4SM BR OVC003 04/04 A2989 RMK AO2
Observed Flight Rules
Jan-18 @ 13:35 UTC
(16 minutes ago)
LIFR
Wind Visibility
140° at 16 knots
 Gusting to 22 knots
4 miles
Clouds
  • Overcast at 300' AGL
Conditions
  • Mist
Temperature Dewpoint
4°C / 39°F 4°C / 39°F
Humidity Altimeter Pressure
100% 29.89" Hg 1012.22 hPa